Time;durP1;ratioP1;P1;durP2;ratioP2;P2;SDS_P1;SDS_P2;PMS_P1;PMS_P2;Temp;Humidity;BMP_temperature;BMP_pressure;BME280_temperature;BME280_humidity;BME280_pressure;Samples;Min_cycle;Max_cycle;Signal;HPM_P1;HPM_P2
2021/12/14 00:01:18;;;;;;;28.77;19.35;;;10.00;99.90;;;;;;5011246;28;20483;-71
2021/12/14 00:03:47;;;;;;;;;;;10.00;99.90;;;;;;5003057;28;20034;-70
2021/12/14 00:06:16;;;;;;;28.55;19.27;;;10.00;99.90;;;;;;5006437;28;19917;-71
2021/12/14 00:08:55;;;;;;;29.02;19.92;;;9.90;99.90;;;;;;4995936;28;20034;-71
2021/12/14 00:16:50;;;;;;;27.83;19.25;;;10.00;99.90;;;;;;5003893;28;20136;-71
2021/12/14 00:19:17;;;;;;;35.07;22.07;;;10.00;99.90;;;;;;4989853;28;20050;-71
2021/12/14 00:21:49;;;;;;;29.60;20.88;;;9.90;99.90;;;;;;4994468;28;21745;-71
2021/12/14 00:24:16;;;;;;;31.30;19.08;;;9.90;99.90;;;;;;4986068;28;20045;-70
2021/12/14 00:26:54;;;;;;;27.30;18.73;;;9.90;99.90;;;;;;4987918;28;20030;-70
2021/12/14 00:29:26;;;;;;;28.30;18.58;;;9.90;99.90;;;;;;4996809;28;20440;-70
2021/12/14 00:31:56;;;;;;;29.42;20.48;;;9.90;99.90;;;;;;5008412;28;20042;-71
2021/12/14 00:34:34;;;;;;;26.73;19.48;;;10.00;99.90;;;;;;4993464;28;20080;-70
2021/12/14 00:37:01;;;;;;;29.05;20.50;;;10.00;99.90;;;;;;5009092;28;20096;-72
2021/12/14 00:39:27;;;;;;;27.13;18.73;;;9.90;99.90;;;;;;4998172;28;20030;-70
2021/12/14 00:41:54;;;;;;;29.75;20.55;;;9.80;99.90;;;;;;5000046;28;20068;-70
2021/12/14 00:44:21;;;;;;;29.25;20.23;;;9.70;99.90;;;;;;5004065;28;20457;-71
2021/12/14 00:46:48;;;;;;;33.03;21.67;;;9.70;99.90;;;;;;4991356;28;20089;-70
2021/12/14 00:49:15;;;;;;;24.48;19.77;;;9.70;99.90;;;;;;5004961;28;20049;-70
2021/12/14 00:51:42;;;;;;;28.58;19.98;;;9.70;99.90;;;;;;4995620;28;20128;-71
2021/12/14 00:54:12;;;;;;;28.55;19.95;;;9.60;99.90;;;;;;4988346;28;20049;-71
2021/12/14 00:56:40;;;;;;;27.55;19.65;;;9.60;99.90;;;;;;5016388;28;20038;-71
2021/12/14 00:59:08;;;;;;;32.38;20.23;;;9.50;99.90;;;;;;5012011;28;20049;-70
2021/12/14 01:01:57;;;;;;;29.05;20.80;;;9.50;99.90;;;;;;5009986;28;20464;-70
2021/12/14 01:04:30;;;;;;;26.75;20.48;;;9.50;99.90;;;;;;5007271;28;20041;-69
2021/12/14 01:06:57;;;;;;;29.40;20.52;;;9.50;99.90;;;;;;5012655;28;20606;-70
2021/12/14 01:09:29;;;;;;;27.63;20.17;;;9.60;99.90;;;;;;5011407;28;20061;-71
2021/12/14 01:12:03;;;;;;;30.15;20.83;;;9.50;99.90;;;;;;4986902;28;20102;-71
2021/12/14 01:14:45;;;;;;;29.55;21.58;;;9.50;99.90;;;;;;4988105;28;20088;-71
2021/12/14 01:17:39;;;;;;;27.10;20.55;;;9.70;99.90;;;;;;4998177;28;20046;-72
2021/12/14 01:20:09;;;;;;;29.55;20.58;;;9.60;99.90;;;;;;4996869;28;20125;-71
2021/12/14 01:25:28;;;;;;;30.20;20.60;;;9.50;99.90;;;;;;5001249;28;20034;-70
2021/12/14 01:28:08;;;;;;;30.10;19.52;;;9.50;99.90;;;;;;5004850;28;20104;-71
2021/12/14 01:30:52;;;;;;;27.58;19.45;;;9.40;99.90;;;;;;4980630;28;20045;-70
2021/12/14 01:33:21;;;;;;;28.85;20.60;;;9.50;99.90;;;;;;5015834;28;20045;-71
2021/12/14 01:35:49;;;;;;;27.42;19.58;;;9.50;99.90;;;;;;5001831;28;20103;-71
2021/12/14 01:38:47;;;;;;;22.67;18.20;;;9.40;99.90;;;;;;4994745;28;20061;-71
2021/12/14 01:41:10;;;;;;;30.85;21.13;;;9.40;99.90;;;;;;4974487;28;20038;-72
2021/12/14 01:43:45;;;;;;;;;;;9.50;99.90;;;;;;4979663;28;20066;-71
2021/12/14 01:46:20;;;;;;;29.20;21.27;;;9.40;99.90;;;;;;4975368;28;20467;-71
2021/12/14 01:48:47;;;;;;;28.42;20.00;;;9.50;99.90;;;;;;5011217;28;20041;-71
2021/12/14 01:51:14;;;;;;;31.70;20.52;;;9.60;99.90;;;;;;5001278;28;20045;-70
2021/12/14 01:53:43;;;;;;;28.92;20.88;;;9.50;99.90;;;;;;4995280;28;20045;-70
2021/12/14 01:56:13;;;;;;;30.67;21.02;;;9.50;99.90;;;;;;4997740;28;20075;-70
2021/12/14 01:58:51;;;;;;;24.25;19.27;;;9.60;99.90;;;;;;5007411;28;20367;-71
2021/12/14 02:01:42;;;;;;;29.63;19.92;;;9.50;99.90;;;;;;4992081;28;20038;-71
2021/12/14 02:04:18;;;;;;;30.20;20.92;;;9.40;99.90;;;;;;5007744;28;20052;-71
2021/12/14 02:06:55;;;;;;;31.52;21.20;;;9.40;99.90;;;;;;4992102;28;20034;-70
2021/12/14 02:09:26;;;;;;;26.83;20.40;;;9.50;99.90;;;;;;4996471;28;20030;-71
2021/12/14 02:11:56;;;;;;;32.05;21.27;;;9.60;99.90;;;;;;5009777;28;20062;-71
2021/12/14 02:14:23;;;;;;;29.70;20.90;;;9.60;99.90;;;;;;5006075;28;20046;-70
2021/12/14 02:16:56;;;;;;;26.90;19.80;;;9.50;99.90;;;;;;5005040;28;20064;-70
2021/12/14 02:19:22;;;;;;;;;;;9.40;99.90;;;;;;5008582;28;25453;-70
2021/12/14 02:21:51;;;;;;;26.65;18.60;;;9.40;99.90;;;;;;4981939;28;19988;-71
2021/12/14 02:24:21;;;;;;;25.10;17.63;;;9.30;99.90;;;;;;5009703;28;20041;-71
2021/12/14 02:26:51;;;;;;;26.00;17.98;;;9.50;99.90;;;;;;4991196;28;20384;-72
2021/12/14 02:29:27;;;;;;;24.95;17.75;;;9.60;99.90;;;;;;4997843;28;20053;-71
2021/12/14 02:32:05;;;;;;;25.02;17.70;;;9.50;99.90;;;;;;5003951;28;20117;-70
2021/12/14 02:34:48;;;;;;;23.27;18.45;;;9.50;99.90;;;;;;4997756;28;20127;-71
2021/12/14 02:37:16;;;;;;;23.55;17.05;;;9.60;99.90;;;;;;5012060;28;20073;-70
2021/12/14 02:42:12;;;;;;;27.33;19.30;;;9.50;99.90;;;;;;5013287;28;20454;-70
2021/12/14 02:44:39;;;;;;;27.60;19.75;;;9.50;99.90;;;;;;5009168;28;20132;-70
2021/12/14 02:47:16;;;;;;;25.55;18.95;;;9.30;99.90;;;;;;4995635;28;20040;-71
2021/12/14 02:49:43;;;;;;;26.13;18.67;;;9.30;99.90;;;;;;4995417;28;20389;-71
2021/12/14 02:52:24;;;;;;;28.98;19.63;;;9.40;99.90;;;;;;5008358;28;20366;-70
2021/12/14 02:54:54;;;;;;;23.58;16.95;;;9.40;99.90;;;;;;5008943;28;20037;-70
2021/12/14 02:57:24;;;;;;;25.35;18.17;;;9.20;99.90;;;;;;5012277;28;20132;-71
2021/12/14 02:59:51;;;;;;;27.38;18.50;;;9.20;99.90;;;;;;5000034;28;20505;-70
2021/12/14 03:02:22;;;;;;;31.30;21.00;;;9.20;99.90;;;;;;5006605;28;20052;-70
2021/12/14 03:04:54;;;;;;;21.27;17.05;;;9.20;99.90;;;;;;5010016;28;20188;-71
2021/12/14 03:07:27;;;;;;;21.45;16.95;;;9.10;99.90;;;;;;5010797;28;20041;-70
2021/12/14 03:10:17;;;;;;;20.73;16.73;;;9.10;99.90;;;;;;5012809;28;20452;-71
2021/12/14 03:12:55;;;;;;;21.40;16.63;;;9.00;99.90;;;;;;5001181;28;20109;-70
2021/12/14 03:15:24;;;;;;;25.40;16.83;;;9.00;99.90;;;;;;5012598;28;20124;-70
2021/12/14 03:17:57;;;;;;;23.67;17.45;;;9.00;99.90;;;;;;5010069;28;20955;-71
2021/12/14 03:20:26;;;;;;;;;;;8.90;99.90;;;;;;5009850;28;20120;-71
2021/12/14 03:23:02;;;;;;;22.67;16.45;;;8.90;99.90;;;;;;5009485;28;19941;-70
2021/12/14 03:25:30;;;;;;;23.73;17.70;;;9.20;99.90;;;;;;4995489;28;20042;-71
2021/12/14 03:27:58;;;;;;;28.90;18.80;;;9.30;99.90;;;;;;4965629;28;20057;-71
2021/12/14 03:30:25;;;;;;;26.90;17.77;;;9.20;99.90;;;;;;4992980;28;20033;-70
2021/12/14 03:32:58;;;;;;;27.98;17.88;;;9.10;99.90;;;;;;5004950;28;20557;-71
2021/12/14 03:35:42;;;;;;;23.50;16.60;;;9.10;99.90;;;;;;5002293;28;20057;-71
2021/12/14 03:38:25;;;;;;;25.92;17.55;;;9.00;99.90;;;;;;4996329;28;20034;-69
2021/12/14 03:41:26;;;;;;;22.27;16.42;;;8.80;99.90;;;;;;4985452;28;20034;-71
2021/12/14 03:43:59;;;;;;;24.13;17.27;;;8.80;99.90;;;;;;4990125;28;20042;-71
2021/12/14 03:46:32;;;;;;;26.92;17.95;;;8.80;99.90;;;;;;5011000;28;20044;-71
2021/12/14 03:49:00;;;;;;;22.92;17.40;;;8.80;99.90;;;;;;5009033;28;20041;-71
2021/12/14 03:51:27;;;;;;;23.98;17.65;;;8.70;99.90;;;;;;5005578;28;20070;-70
2021/12/14 03:53:56;;;;;;;24.58;17.15;;;8.80;99.90;;;;;;4992089;28;20038;-72
2021/12/14 03:56:24;;;;;;;26.73;17.63;;;8.80;99.90;;;;;;4995987;28;20717;-71
2021/12/14 03:58:51;;;;;;;26.58;17.70;;;8.80;99.90;;;;;;4994997;28;20049;-71
2021/12/14 04:01:28;;;;;;;24.73;17.27;;;8.70;99.90;;;;;;5006175;28;20038;-71
2021/12/14 04:04:26;;;;;;;26.05;18.35;;;8.70;99.90;;;;;;5011063;28;20449;-71
2021/12/14 04:06:56;;;;;;;24.70;16.92;;;8.70;99.90;;;;;;4991277;28;20062;-72
2021/12/14 04:09:28;;;;;;;27.63;18.92;;;8.70;99.90;;;;;;4998237;28;20207;-71
2021/12/14 04:11:55;;;;;;;27.58;17.67;;;8.70;99.90;;;;;;4995195;28;20534;-70
2021/12/14 04:14:22;;;;;;;25.58;17.52;;;8.70;99.90;;;;;;5008719;28;20045;-70
2021/12/14 04:16:51;;;;;;;28.25;17.30;;;8.60;99.90;;;;;;5014247;28;20064;-70
2021/12/14 04:19:22;;;;;;;26.42;17.88;;;8.60;99.90;;;;;;5001836;28;20045;-70
2021/12/14 04:21:49;;;;;;;29.42;19.65;;;8.60;99.90;;;;;;5006248;28;20046;-70
2021/12/14 04:24:22;;;;;;;25.17;18.20;;;8.50;99.90;;;;;;5001086;28;20061;-71
2021/12/14 04:26:49;;;;;;;;;;;8.50;99.90;;;;;;5003963;28;20433;-71
2021/12/14 04:29:16;;;;;;;25.95;17.20;;;8.50;99.90;;;;;;5004184;28;19913;-71
2021/12/14 04:31:45;;;;;;;23.80;15.18;;;8.60;99.90;;;;;;4999266;28;20030;-70
2021/12/14 04:34:14;;;;;;;21.95;13.52;;;8.60;99.90;;;;;;5005544;28;20045;-70
2021/12/14 04:36:43;;;;;;;16.58;12.98;;;8.60;99.90;;;;;;5002684;28;20037;-70
2021/12/14 04:53:22;;;;;;;20.63;13.68;;;8.30;99.90;;;;;;4997170;28;21006;-70
2021/12/14 04:55:50;;;;;;;18.77;13.80;;;8.30;99.90;;;;;;4999423;28;20042;-71
2021/12/14 04:58:34;;;;;;;18.60;14.43;;;8.40;99.90;;;;;;5001894;28;20049;-71
2021/12/14 05:01:03;;;;;;;19.42;14.50;;;8.50;99.90;;;;;;5008198;28;20034;-69
2021/12/14 05:03:38;;;;;;;23.60;15.13;;;8.40;99.90;;;;;;4999658;28;20026;-71
2021/12/14 05:06:15;;;;;;;19.27;14.43;;;8.40;99.90;;;;;;5002727;28;20030;-71
2021/12/14 05:11:15;;;;;;;21.38;14.57;;;8.40;99.90;;;;;;4989007;28;20066;-70
2021/12/14 05:13:46;;;;;;;18.85;13.88;;;8.40;99.90;;;;;;4990398;28;20077;-71
2021/12/14 05:16:22;;;;;;;19.35;14.85;;;8.40;99.90;;;;;;5005313;28;20038;-71
2021/12/14 05:18:53;;;;;;;20.35;14.48;;;8.20;99.90;;;;;;4982171;28;20050;-71
2021/12/14 05:21:30;;;;;;;18.67;14.98;;;8.30;99.90;;;;;;4994215;28;20026;-70
2021/12/14 05:23:58;;;;;;;19.45;14.43;;;8.20;99.90;;;;;;5001570;28;20183;-70
2021/12/14 05:26:24;;;;;;;19.55;14.20;;;8.10;99.90;;;;;;5012056;28;20063;-71
2021/12/14 05:28:50;;;;;;;19.15;13.90;;;8.10;99.90;;;;;;5011864;28;20030;-71
2021/12/14 05:31:17;;;;;;;20.38;14.45;;;8.10;99.90;;;;;;4984733;28;20034;-71
2021/12/14 05:33:45;;;;;;;19.67;14.48;;;8.00;99.90;;;;;;5015921;28;20050;-71
2021/12/14 05:36:15;;;;;;;21.27;15.40;;;8.00;99.90;;;;;;4988050;28;20080;-72
2021/12/14 05:39:02;;;;;;;25.75;15.80;;;8.00;99.90;;;;;;4979047;28;20042;-71
2021/12/14 05:44:25;;;;;;;22.13;15.23;;;8.00;99.90;;;;;;5003948;28;20124;-71
2021/12/14 05:46:59;;;;;;;19.20;14.18;;;8.00;99.90;;;;;;4995621;28;20112;-70
2021/12/14 05:49:28;;;;;;;20.73;14.85;;;8.10;99.90;;;;;;5002804;28;20038;-71
2021/12/14 05:51:58;;;;;;;20.42;14.65;;;8.10;99.90;;;;;;5009662;28;20509;-72
2021/12/14 05:54:31;;;;;;;20.38;13.85;;;8.10;99.90;;;;;;5005693;28;20030;-70
2021/12/14 05:57:00;;;;;;;18.40;13.82;;;8.20;99.90;;;;;;5007132;28;20060;-72
2021/12/14 05:59:30;;;;;;;19.67;13.88;;;8.10;99.90;;;;;;5006215;28;20034;-71
2021/12/14 06:01:58;;;;;;;19.92;12.80;;;8.10;99.90;;;;;;4994082;28;20052;-70
2021/12/14 06:04:34;;;;;;;19.40;13.52;;;8.10;99.90;;;;;;4996305;28;20033;-73
2021/12/14 06:07:01;;;;;;;17.17;12.50;;;8.20;99.90;;;;;;5003755;28;20094;-71
2021/12/14 06:09:30;;;;;;;17.73;13.30;;;8.30;99.90;;;;;;4987760;28;20041;-72
2021/12/14 06:12:10;;;;;;;17.35;13.82;;;8.40;99.90;;;;;;4994675;28;20560;-71
2021/12/14 06:14:42;;;;;;;18.75;13.15;;;8.40;99.90;;;;;;5011951;28;20473;-71
2021/12/14 06:17:11;;;;;;;17.42;12.52;;;8.40;99.90;;;;;;5012876;28;20042;-70
2021/12/14 06:19:42;;;;;;;19.70;12.57;;;8.50;99.90;;;;;;5000747;28;20091;-70
2021/12/14 06:22:18;;;;;;;15.82;11.35;;;8.40;99.90;;;;;;4999011;28;20046;-72
2021/12/14 06:24:50;;;;;;;16.90;11.27;;;8.40;99.90;;;;;;5008515;28;20505;-71
2021/12/14 06:27:20;;;;;;;16.27;11.73;;;8.30;99.90;;;;;;5008106;28;20045;-72
2021/12/14 06:29:53;;;;;;;16.05;11.45;;;8.20;99.90;;;;;;4971823;28;20030;-71
2021/12/14 06:32:23;;;;;;;15.82;10.30;;;8.10;99.90;;;;;;5006021;28;20215;-70
2021/12/14 06:34:54;;;;;;;14.70;11.07;;;8.10;99.90;;;;;;4993726;28;20459;-71
2021/12/14 06:40:36;;;;;;;15.40;11.00;;;8.10;99.90;;;;;;5007319;28;20122;-71
2021/12/14 06:43:08;;;;;;;23.48;12.63;;;8.00;99.90;;;;;;5004588;28;20045;-73
2021/12/14 06:45:42;;;;;;;18.83;12.07;;;8.10;99.90;;;;;;4991899;28;20033;-73
2021/12/14 06:48:16;;;;;;;18.02;12.30;;;8.00;99.90;;;;;;5007831;28;20041;-72
2021/12/14 06:51:18;;;;;;;17.08;12.25;;;8.00;99.90;;;;;;5007553;28;20130;-73
2021/12/14 06:53:49;;;;;;;17.35;11.43;;;8.00;99.90;;;;;;4983080;28;20034;-71
2021/12/14 06:56:16;;;;;;;18.75;12.63;;;8.10;99.90;;;;;;5004335;28;20034;-72
2021/12/14 06:58:55;;;;;;;17.40;12.30;;;8.10;99.90;;;;;;4982945;28;20532;-72
2021/12/14 07:01:31;;;;;;;19.42;12.50;;;8.00;99.90;;;;;;5008256;28;20088;-70
2021/12/14 07:03:57;;;;;;;18.13;11.65;;;8.00;99.90;;;;;;5005010;28;20030;-72
2021/12/14 07:06:30;;;;;;;18.73;12.00;;;8.10;99.90;;;;;;5004071;28;20105;-71
2021/12/14 07:09:04;;;;;;;20.42;11.80;;;8.20;99.90;;;;;;5007252;28;20044;-71
2021/12/14 07:11:30;;;;;;;16.45;10.93;;;8.20;99.90;;;;;;4974688;28;20429;-73
2021/12/14 07:13:58;;;;;;;18.52;12.55;;;8.20;99.90;;;;;;5024410;28;20049;-71
2021/12/14 07:16:32;;;;;;;16.30;10.82;;;8.20;99.90;;;;;;4978230;28;20046;-73
2021/12/14 07:19:01;;;;;;;15.77;11.10;;;8.20;99.90;;;;;;5020009;28;20097;-72
2021/12/14 07:21:47;;;;;;;20.08;11.50;;;8.20;99.90;;;;;;4982883;28;20034;-72
2021/12/14 07:24:22;;;;;;;15.20;10.27;;;8.20;99.90;;;;;;4975248;28;20146;-71
2021/12/14 07:27:14;;;;;;;16.02;10.40;;;8.20;99.90;;;;;;4998170;28;20109;-71
2021/12/14 07:29:41;;;;;;;16.20;10.63;;;8.10;99.90;;;;;;4995619;28;20512;-71
2021/12/14 07:32:08;;;;;;;18.75;11.15;;;8.20;99.90;;;;;;4986782;28;20046;-71
2021/12/14 07:34:34;;;;;;;18.45;10.68;;;8.20;99.90;;;;;;5006922;28;20038;-71
2021/12/14 07:37:00;;;;;;;17.45;10.90;;;8.30;99.90;;;;;;5004796;28;20037;-72
2021/12/14 07:39:26;;;;;;;16.13;10.90;;;8.40;99.90;;;;;;5005543;28;20226;-72
2021/12/14 07:41:58;;;;;;;19.15;11.65;;;8.40;99.90;;;;;;4996593;28;20582;-71
2021/12/14 07:44:33;;;;;;;24.20;11.30;;;8.40;99.90;;;;;;5000177;28;20061;-72
2021/12/14 07:47:18;;;;;;;18.25;11.52;;;8.40;99.90;;;;;;5007448;28;20499;-72
2021/12/14 07:49:54;;;;;;;17.65;10.73;;;8.60;99.90;;;;;;5010046;28;20522;-72
2021/12/14 07:52:35;;;;;;;19.70;12.02;;;8.60;99.90;;;;;;4994951;28;20447;-71
2021/12/14 07:55:21;;;;;;;17.38;10.90;;;8.70;99.90;;;;;;4965884;28;20054;-71
2021/12/14 07:57:48;;;;;;;19.67;11.63;;;8.80;99.90;;;;;;4997352;28;20038;-72
2021/12/14 08:00:23;;;;;;;18.40;12.23;;;8.80;99.90;;;;;;4961008;28;20149;-72
2021/12/14 08:02:52;;;;;;;17.95;11.65;;;8.80;99.90;;;;;;5005880;28;20511;-71
2021/12/14 08:05:32;;;;;;;14.50;10.73;;;8.90;99.90;;;;;;4991162;28;20046;-74
2021/12/14 08:08:20;;;;;;;17.90;11.07;;;8.80;99.90;;;;;;5004091;28;20358;-71
2021/12/14 08:11:27;;;;;;;25.52;14.27;;;8.90;99.90;;;;;;5016550;28;20848;-73
2021/12/14 08:13:55;;;;;;;21.35;13.02;;;9.90;99.90;;;;;;4962157;28;20092;-71
2021/12/14 08:16:22;;;;;;;18.38;13.00;;;10.10;99.90;;;;;;4965243;28;20472;-73
2021/12/14 08:18:50;;;;;;;18.88;13.68;;;10.50;99.90;;;;;;4974531;28;20168;-72
2021/12/14 08:21:23;;;;;;;18.95;12.27;;;12.00;99.90;;;;;;4982924;28;20038;-71
2021/12/14 08:23:49;;;;;;;;;;;12.80;99.90;;;;;;4966121;28;20161;-71
2021/12/14 08:26:21;;;;;;;18.02;11.50;;;13.60;99.90;;;;;;4971979;28;19913;-72
2021/12/14 08:29:03;;;;;;;18.02;11.00;;;14.30;99.90;;;;;;4973389;28;20073;-70
2021/12/14 08:31:39;;;;;;;18.58;10.60;;;14.80;99.90;;;;;;4963649;28;20046;-71
2021/12/14 08:34:12;;;;;;;15.80;10.88;;;15.20;99.90;;;;;;4962337;28;20034;-72
2021/12/14 08:36:47;;;;;;;27.55;11.23;;;15.80;99.90;;;;;;4986577;28;20057;-70
2021/12/14 08:39:26;;;;;;;16.13;10.77;;;16.00;99.90;;;;;;4976297;28;20045;-72
2021/12/14 08:42:14;;;;;;;14.63;10.13;;;16.00;99.90;;;;;;4976089;28;20046;-70
2021/12/14 08:44:52;;;;;;;15.73;10.43;;;16.10;99.90;;;;;;4956259;28;20042;-71
2021/12/14 08:47:40;;;;;;;15.38;9.27;;;15.40;99.90;;;;;;4997622;28;20419;-71
2021/12/14 08:50:13;;;;;;;15.05;9.45;;;14.80;99.90;;;;;;4972216;28;20038;-72
2021/12/14 08:52:42;;;;;;;17.98;11.05;;;14.40;99.90;;;;;;4992973;28;20119;-71
2021/12/14 08:55:14;;;;;;;15.38;9.82;;;14.20;99.90;;;;;;4978679;28;20039;-71
2021/12/14 08:57:41;;;;;;;14.65;9.00;;;13.80;99.90;;;;;;4975320;28;20116;-72
2021/12/14 09:00:20;;;;;;;18.42;9.30;;;13.70;99.90;;;;;;4971426;28;20042;-70
2021/12/14 09:02:48;;;;;;;14.40;9.25;;;13.50;99.90;;;;;;4975061;28;20034;-71
2021/12/14 09:05:32;;;;;;;14.93;9.10;;;13.40;99.90;;;;;;4990874;28;20144;-71
2021/12/14 09:08:00;;;;;;;14.55;9.48;;;13.40;99.90;;;;;;4982759;28;20042;-71
2021/12/14 09:10:29;;;;;;;14.20;9.30;;;13.40;99.90;;;;;;5001112;28;20046;-71
2021/12/14 09:12:59;;;;;;;17.83;10.13;;;13.30;99.90;;;;;;4979123;28;20033;-71
2021/12/14 09:15:35;;;;;;;12.13;8.90;;;13.30;99.90;;;;;;4988222;28;20072;-72
2021/12/14 09:18:02;;;;;;;13.70;9.48;;;13.30;99.90;;;;;;4978212;28;20115;-71
2021/12/14 09:20:37;;;;;;;13.10;9.60;;;13.50;99.90;;;;;;4999734;28;20087;-70
2021/12/14 09:23:08;;;;;;;12.65;9.18;;;13.90;99.90;;;;;;4975529;28;20046;-70
2021/12/14 09:25:35;;;;;;;14.10;9.45;;;14.30;99.90;;;;;;5005876;28;20030;-72
2021/12/14 09:28:05;;;;;;;13.38;9.40;;;14.60;99.90;;;;;;4974824;28;20035;-72
2021/12/14 09:30:38;;;;;;;13.45;9.15;;;14.80;99.90;;;;;;4994945;28;20103;-71
2021/12/14 09:33:06;;;;;;;21.63;9.45;;;15.00;99.90;;;;;;4950625;28;20034;-72
2021/12/14 09:35:35;;;;;;;21.50;10.07;;;15.40;99.90;;;;;;4973555;28;20046;-74
2021/12/14 09:38:05;;;;;;;16.63;9.85;;;15.50;99.90;;;;;;4954086;28;20042;-72
2021/12/14 09:40:43;;;;;;;12.75;8.73;;;15.70;99.90;;;;;;4949044;28;20042;-73
2021/12/14 09:43:10;;;;;;;15.07;9.13;;;15.90;99.90;;;;;;4966933;28;20038;-71
2021/12/14 09:45:43;;;;;;;14.38;9.30;;;16.10;99.90;;;;;;4960305;28;20121;-72
2021/12/14 09:48:15;;;;;;;12.07;8.73;;;16.30;99.90;;;;;;4961546;28;20043;-71
2021/12/14 09:50:42;;;;;;;;;;;16.30;99.90;;;;;;4991185;28;20069;-72
2021/12/14 09:53:11;;;;;;;12.50;9.25;;;16.40;99.90;;;;;;4975623;28;19929;-73
2021/12/14 09:55:41;;;;;;;14.23;9.70;;;16.60;99.90;;;;;;4975515;28;20124;-71
2021/12/14 09:58:16;;;;;;;15.07;9.73;;;16.70;99.90;;;;;;4976314;28;20046;-72
2021/12/14 10:01:05;;;;;;;13.52;9.60;;;16.90;99.90;;;;;;4971253;28;20580;-76
2021/12/14 10:03:32;;;;;;;13.93;9.48;;;16.90;99.90;;;;;;4983625;28;20100;-73
2021/12/14 10:06:08;;;;;;;16.35;10.75;;;17.10;99.90;;;;;;4982467;28;20157;-72
2021/12/14 10:08:40;;;;;;;13.13;10.60;;;17.30;99.90;;;;;;4992099;28;20047;-71
2021/12/14 10:11:27;;;;;;;17.60;11.60;;;17.50;99.90;;;;;;4960344;28;20043;-71
2021/12/14 10:13:56;;;;;;;16.38;12.48;;;17.50;99.90;;;;;;4973319;28;20811;-72
2021/12/14 10:16:22;;;;;;;17.30;12.25;;;17.60;99.90;;;;;;4986377;28;20043;-72
2021/12/14 10:19:01;;;;;;;16.48;12.73;;;17.90;99.90;;;;;;4963717;28;20042;-70
2021/12/14 10:21:39;;;;;;;17.98;14.18;;;18.20;99.90;;;;;;4965362;28;20070;-71
2021/12/14 10:24:07;;;;;;;19.05;15.65;;;18.40;99.90;;;;;;4961559;28;20382;-73
2021/12/14 10:26:36;;;;;;;18.95;15.60;;;18.70;99.90;;;;;;4957612;28;20514;-73
2021/12/14 10:29:04;;;;;;;20.10;15.55;;;18.90;99.90;;;;;;4958659;28;20398;-71
2021/12/14 10:31:41;;;;;;;18.38;15.77;;;19.00;99.90;;;;;;4972440;28;20043;-72
2021/12/14 10:34:14;;;;;;;17.13;14.98;;;19.10;99.90;;;;;;4961761;28;21237;-72
2021/12/14 10:36:47;;;;;;;19.40;15.75;;;19.30;99.90;;;;;;4954528;28;20043;-71
2021/12/14 10:39:36;;;;;;;21.02;16.90;;;19.60;99.90;;;;;;4974200;28;20426;-72
2021/12/14 10:45:02;;;;;;;18.58;15.90;;;20.00;99.90;;;;;;4964186;28;20046;-71
2021/12/14 10:47:31;;;;;;;18.20;15.52;;;19.70;99.90;;;;;;4966177;28;20513;-71
2021/12/14 10:50:00;;;;;;;20.40;15.50;;;19.50;99.90;;;;;;4968786;28;20030;-71
2021/12/14 10:52:29;;;;;;;20.73;15.05;;;19.70;99.90;;;;;;4970011;28;20042;-73
2021/12/14 10:55:08;;;;;;;22.45;15.68;;;20.20;99.70;;;;;;4980336;28;20041;-72
2021/12/14 10:57:36;;;;;;;20.02;15.15;;;20.90;98.90;;;;;;4960976;28;20513;-73
2021/12/14 11:00:29;;;;;;;20.95;15.55;;;21.00;98.40;;;;;;4973193;28;20120;-70
2021/12/14 11:03:07;;;;;;;19.23;15.52;;;21.00;98.30;;;;;;4991695;28;20030;-72
2021/12/14 11:05:35;;;;;;;19.35;14.38;;;20.70;98.20;;;;;;4974130;28;20062;-73
2021/12/14 11:08:04;;;;;;;26.35;15.73;;;20.60;98.30;;;;;;4978194;28;20049;-71
2021/12/14 11:10:35;;;;;;;19.38;14.80;;;20.60;98.30;;;;;;4969647;28;20602;-71
2021/12/14 11:13:09;;;;;;;24.55;16.00;;;20.70;98.50;;;;;;4978998;28;20050;-71
2021/12/14 11:15:42;;;;;;;18.85;15.68;;;21.20;98.10;;;;;;4990191;28;20090;-72
2021/12/14 11:18:16;;;;;;;22.70;16.20;;;21.80;97.60;;;;;;4976563;28;20038;-71
2021/12/14 11:20:57;;;;;;;24.50;16.92;;;22.40;97.00;;;;;;4954958;28;20042;-72
2021/12/14 11:23:23;;;;;;;20.70;17.05;;;22.80;96.20;;;;;;4983775;28;20042;-71
2021/12/14 11:25:49;;;;;;;20.33;18.23;;;22.60;96.40;;;;;;4990441;28;20341;-71
2021/12/14 11:28:25;;;;;;;24.08;18.65;;;22.80;96.40;;;;;;4987661;28;20046;-72
2021/12/14 11:31:08;;;;;;;23.05;17.45;;;22.80;96.50;;;;;;4978038;28;20038;-73
2021/12/14 11:33:44;;;;;;;25.70;18.52;;;22.90;96.60;;;;;;5001079;28;20045;-73
2021/12/14 11:36:14;;;;;;;21.98;18.65;;;23.00;96.30;;;;;;4991445;28;20107;-71
2021/12/14 11:39:12;;;;;;;21.50;18.50;;;23.50;95.80;;;;;;4979480;28;20030;-71
2021/12/14 11:41:49;;;;;;;25.00;18.70;;;23.60;95.30;;;;;;4990849;28;20569;-72
2021/12/14 11:44:38;;;;;;;25.15;19.15;;;23.40;95.40;;;;;;5000985;28;20474;-72
2021/12/14 11:47:41;;;;;;;30.65;19.35;;;23.70;95.30;;;;;;5005689;28;20570;-72
2021/12/14 11:50:06;;;;;;;27.02;19.55;;;23.70;95.20;;;;;;5006640;28;20037;-73
2021/12/14 11:52:39;;;;;;;29.50;19.50;;;24.00;94.90;;;;;;5002970;28;20054;-72
2021/12/14 11:55:38;;;;;;;23.75;18.23;;;24.20;94.60;;;;;;5004245;28;20122;-73
2021/12/14 11:58:30;;;;;;;28.25;19.27;;;24.00;94.70;;;;;;4964624;28;20045;-72
2021/12/14 12:01:13;;;;;;;;;;;24.40;94.20;;;;;;4976245;28;20054;-74
2021/12/14 12:03:51;;;;;;;23.98;19.73;;;24.70;93.70;;;;;;4986557;28;19924;-72
2021/12/14 12:09:28;;;;;;;24.20;20.25;;;23.60;94.40;;;;;;4970802;28;20509;-73
2021/12/14 12:09:28;;;;;;;25.65;20.70;;;23.40;94.80;;;;;;4986994;28;25631;-73
2021/12/14 12:12:07;;;;;;;25.17;20.00;;;23.40;94.80;;;;;;4980084;28;20057;-73
2021/12/14 12:15:09;;;;;;;34.65;21.50;;;23.70;94.60;;;;;;4983382;28;20848;-72
2021/12/14 12:17:47;;;;;;;25.00;19.60;;;24.00;94.30;;;;;;4973763;28;20418;-71
2021/12/14 12:20:16;;;;;;;29.17;20.77;;;23.90;94.20;;;;;;4975584;28;20042;-73
2021/12/14 12:22:52;;;;;;;30.38;20.48;;;24.40;93.90;;;;;;4968997;28;20043;-74
2021/12/14 12:25:26;;;;;;;30.25;19.75;;;24.90;93.10;;;;;;4967753;28;20092;-72
2021/12/14 12:27:54;;;;;;;37.75;21.40;;;25.00;93.00;;;;;;4987548;28;20057;-72
2021/12/14 12:30:31;;;;;;;30.25;20.67;;;24.60;92.90;;;;;;4972073;28;20037;-73
2021/12/14 12:33:03;;;;;;;29.92;20.92;;;24.70;93.00;;;;;;4986446;28;20042;-71
2021/12/14 12:35:39;;;;;;;32.20;21.50;;;24.90;93.00;;;;;;4972563;28;20133;-73
2021/12/14 12:38:20;;;;;;;27.15;20.05;;;25.00;92.70;;;;;;4951588;28;20122;-73
2021/12/14 12:40:55;;;;;;;31.10;21.08;;;25.60;92.40;;;;;;4977950;28;20092;-76
2021/12/14 12:43:36;;;;;;;32.42;21.20;;;25.30;92.10;;;;;;4971293;28;20034;-72
2021/12/14 12:46:18;;;;;;;24.38;21.70;;;25.00;92.50;;;;;;4974882;28;20081;-71
2021/12/14 12:48:52;;;;;;;30.20;21.98;;;24.70;92.50;;;;;;4993983;28;20136;-73
2021/12/14 12:51:55;;;;;;;32.38;22.65;;;24.70;92.70;;;;;;4985370;28;20046;-72
2021/12/14 12:54:20;;;;;;;29.00;21.95;;;25.20;92.30;;;;;;4909768;29;20044;-73
2021/12/14 12:57:07;;;;;;;34.97;22.50;;;25.60;91.90;;;;;;4968992;28;20107;-72
2021/12/14 12:59:42;;;;;;;30.08;21.13;;;25.60;91.80;;;;;;5001200;28;20053;-73
2021/12/14 13:02:32;;;;;;;30.70;22.88;;;26.00;91.40;;;;;;4979376;28;20050;-72
2021/12/14 13:05:04;;;;;;;32.20;21.88;;;25.90;91.50;;;;;;4974618;28;20800;-74
2021/12/14 13:07:51;;;;;;;29.20;22.75;;;25.90;91.40;;;;;;4974832;28;20042;-73
2021/12/14 13:10:31;;;;;;;29.52;21.65;;;26.10;91.10;;;;;;4954739;28;20221;-72
2021/12/14 13:13:07;;;;;;;34.78;22.05;;;25.40;91.50;;;;;;4980127;28;20119;-72
2021/12/14 13:16:07;;;;;;;29.30;20.65;;;26.10;91.00;;;;;;4983050;28;20043;-72
2021/12/14 13:18:41;;;;;;;34.58;22.23;;;26.10;90.80;;;;;;4971185;28;20038;-74
2021/12/14 13:21:09;;;;;;;30.63;22.67;;;26.10;90.60;;;;;;4953153;28;20089;-74
2021/12/14 13:24:06;;;;;;;29.05;22.20;;;25.60;90.90;;;;;;4972402;28;20481;-75
2021/12/14 13:26:47;;;;;;;29.95;22.13;;;25.90;90.60;;;;;;4951051;28;20678;-74
2021/12/14 13:29:22;;;;;;;33.03;22.85;;;25.60;90.80;;;;;;4963400;28;20397;-71
2021/12/14 13:32:09;;;;;;;30.35;22.52;;;25.00;91.40;;;;;;4952678;28;20047;-72
2021/12/14 13:34:52;;;;;;;28.35;22.33;;;24.60;91.70;;;;;;4991043;28;20038;-71
2021/12/14 13:37:27;;;;;;;29.55;22.10;;;24.10;92.00;;;;;;4980661;28;20038;-72
2021/12/14 13:39:54;;;;;;;32.35;22.85;;;24.70;91.70;;;;;;4968654;28;20049;-70
2021/12/14 13:42:51;;;;;;;32.70;23.10;;;24.70;91.50;;;;;;4983208;28;20127;-71
2021/12/14 13:45:26;;;;;;;33.13;25.10;;;25.10;91.50;;;;;;5008512;28;20490;-72
2021/12/14 13:47:53;;;;;;;28.05;21.63;;;25.60;91.20;;;;;;5009636;28;20574;-71